createdAt,value
2018-02-20T00:00:58.958Z,97743.89
2018-02-20T00:03:27.235Z,97743.53
2018-02-20T00:05:55.538Z,97737.09
2018-02-20T00:08:23.783Z,97735.67
2018-02-20T00:10:52.073Z,97738.50
2018-02-20T00:13:20.341Z,97738.08
2018-02-20T00:15:48.628Z,97737.39
2018-02-20T00:18:16.897Z,97738.53
2018-02-20T00:20:45.251Z,97733.67
2018-02-20T00:23:13.671Z,97732.38
2018-02-20T00:25:42.060Z,97729.13
2018-02-20T00:28:10.336Z,97733.98
2018-02-20T00:30:38.612Z,97732.12
2018-02-20T00:33:07.640Z,97723.53
2018-02-20T00:35:35.925Z,97719.64
2018-02-20T00:50:01.383Z,97724.47
2018-02-20T00:52:29.644Z,97716.59
2018-02-20T00:54:58.664Z,97721.98
2018-02-20T00:57:28.426Z,97722.92
2018-02-20T00:59:56.663Z,97724.02
2018-02-20T01:02:24.912Z,97717.94
2018-02-20T01:04:53.180Z,97711.48
2018-02-20T01:07:21.495Z,97714.30
2018-02-20T01:09:49.754Z,97718.14
2018-02-20T01:12:18.780Z,97716.71
2018-02-20T01:14:47.086Z,97709.06
2018-02-20T01:17:15.425Z,97713.28
2018-02-20T01:19:44.533Z,97707.56
2018-02-20T01:22:13.622Z,97713.77
2018-02-20T01:24:41.920Z,97712.83
2018-02-20T01:27:10.183Z,97715.12
2018-02-20T01:29:38.435Z,97715.72
2018-02-20T01:32:06.711Z,97713.06
2018-02-20T01:34:34.994Z,97715.44
2018-02-20T01:37:03.387Z,97718.87
2018-02-20T01:39:32.408Z,97711.02
2018-02-20T01:42:00.707Z,97721.20
2018-02-20T01:44:28.972Z,97724.52
2018-02-20T01:46:57.248Z,97719.31
2018-02-20T01:49:26.280Z,97717.64
2018-02-20T01:51:55.320Z,97714.04
2018-02-20T01:54:23.591Z,97715.34
2018-02-20T01:56:51.859Z,97707.47
2018-02-20T01:59:20.115Z,97704.85
2018-02-20T02:01:48.396Z,97700.89
2018-02-20T02:04:16.828Z,97700.03
2018-02-20T02:06:45.113Z,97701.22
2018-02-20T02:09:13.446Z,97696.48
2018-02-20T02:11:41.759Z,97702.48
2018-02-20T02:14:10.867Z,97698.72
2018-02-20T02:16:39.175Z,97700.33
2018-02-20T02:19:08.228Z,97692.92
2018-02-20T02:21:36.502Z,97704.52
2018-02-20T02:24:04.759Z,97700.15
2018-02-20T02:26:33.796Z,97698.09
2018-02-20T02:29:02.069Z,97699.86
2018-02-20T02:31:30.379Z,97701.79
2018-02-20T02:33:58.665Z,97699.74
2018-02-20T02:36:26.929Z,97697.63
2018-02-20T02:38:55.980Z,97703.27
2018-02-20T02:41:24.247Z,97704.59
2018-02-20T02:43:52.533Z,97700.19
2018-02-20T02:46:20.799Z,97706.56
2018-02-20T02:48:49.860Z,97712.08
2018-02-20T02:51:18.136Z,97713.55
2018-02-20T02:53:46.417Z,97715.45
2018-02-20T02:56:14.682Z,97715.50
2018-02-20T02:58:43.766Z,97714.77
2018-02-20T03:01:12.121Z,97714.41
2018-02-20T03:03:40.430Z,97718.12
2018-02-20T03:06:09.488Z,97723.14
2018-02-20T03:08:37.760Z,97724.98
2018-02-20T03:11:06.788Z,97727.27
2018-02-20T03:13:35.064Z,97723.47
2018-02-20T03:16:03.337Z,97726.09
2018-02-20T03:18:31.620Z,97726.33
2018-02-20T03:21:00.687Z,97714.93
2018-02-20T03:23:28.973Z,97712.06
2018-02-20T03:25:57.242Z,97711.95
2018-02-20T03:28:25.520Z,97712.41
2018-02-20T03:30:55.128Z,97705.71
2018-02-20T03:33:24.173Z,97709.59
2018-02-20T03:35:52.432Z,97704.32
2018-02-20T03:38:21.468Z,97709.50
2018-02-20T03:40:49.720Z,97702.44
2018-02-20T03:43:18.765Z,97702.08
2018-02-20T03:45:47.035Z,97704.08
2018-02-20T03:48:15.327Z,97718.89
2018-02-20T03:50:43.702Z,97702.43
2018-02-20T03:53:12.775Z,97708.22
2018-02-20T03:55:41.373Z,97710.28
2018-02-20T03:58:09.644Z,97713.18
2018-02-20T04:00:37.910Z,97711.83
2018-02-20T04:03:06.190Z,97709.03
2018-02-20T04:05:34.435Z,97710.59
2018-02-20T04:08:02.716Z,97712.83
2018-02-20T04:10:30.989Z,97713.72
2018-02-20T04:12:59.330Z,97712.05
2018-02-20T04:15:27.599Z,97708.61
2018-02-20T04:17:55.874Z,97710.38
2018-02-20T04:20:24.147Z,97718.22
2018-02-20T04:22:52.436Z,97718.62
2018-02-20T04:25:20.705Z,97709.23
2018-02-20T04:27:48.985Z,97706.63
2018-02-20T04:30:17.252Z,97700.38
2018-02-20T04:32:46.304Z,97702.19
2018-02-20T04:35:14.610Z,97700.83
2018-02-20T04:37:42.890Z,97691.69
2018-02-20T04:40:11.210Z,97693.64
2018-02-20T04:42:39.462Z,97694.45
2018-02-20T04:45:07.738Z,97689.95
2018-02-20T04:47:36.008Z,97687.34
2018-02-20T04:50:04.298Z,97689.77
2018-02-20T04:52:33.317Z,97693.65
2018-02-20T04:55:01.629Z,97689.47
2018-02-20T04:57:29.911Z,97692.91
2018-02-20T04:59:58.210Z,97697.20
2018-02-20T05:02:26.472Z,97694.83
2018-02-20T05:04:54.732Z,97705.36
2018-02-20T05:07:23.762Z,97702.13
2018-02-20T05:09:52.056Z,97700.64
2018-02-20T05:12:20.324Z,97696.61
2018-02-20T05:14:49.361Z,97703.02
2018-02-20T05:17:17.616Z,97706.67
2018-02-20T05:19:46.688Z,97699.19
2018-02-20T05:22:15.752Z,97697.13
2018-02-20T05:24:44.081Z,97701.51
2018-02-20T05:27:12.379Z,97703.95
2018-02-20T05:29:40.916Z,97702.36
2018-02-20T05:32:09.939Z,97706.25
2018-02-20T05:34:38.215Z,97708.08
2018-02-20T05:37:06.482Z,97713.59
2018-02-20T05:39:34.756Z,97709.33
2018-02-20T05:42:03.796Z,97709.56
2018-02-20T05:44:32.835Z,97711.42
2018-02-20T05:47:01.122Z,97715.25
2018-02-20T05:49:29.412Z,97719.59
2018-02-20T05:51:57.683Z,97716.78
2018-02-20T05:54:27.303Z,97724.57
2018-02-20T05:56:55.574Z,97716.73
2018-02-20T05:59:24.630Z,97713.74
2018-02-20T06:01:52.887Z,97721.76
2018-02-20T06:04:21.155Z,97726.70
2018-02-20T06:06:50.772Z,97728.97
2018-02-20T06:09:19.826Z,97723.31
2018-02-20T06:11:48.073Z,97732.28
2018-02-20T06:14:17.128Z,97724.62
2018-02-20T06:16:45.421Z,97730.19
2018-02-20T06:19:14.551Z,97729.62
2018-02-20T06:21:42.975Z,97724.93
2018-02-20T06:24:11.350Z,97729.02
2018-02-20T06:26:39.608Z,97736.37
2018-02-20T06:29:07.887Z,97735.63
2018-02-20T06:31:36.146Z,97736.19
2018-02-20T06:34:04.423Z,97733.38
2018-02-20T06:36:33.465Z,97736.16
2018-02-20T06:39:01.778Z,97736.02
2018-02-20T06:41:30.076Z,97733.86
2018-02-20T06:43:58.368Z,97744.83
2018-02-20T06:46:26.640Z,97743.48
2018-02-20T06:48:54.908Z,97745.59
2018-02-20T06:51:23.281Z,97747.78
2018-02-20T06:53:51.787Z,97750.03
2018-02-20T06:56:20.504Z,97748.23
2018-02-20T06:58:49.048Z,97751.80
2018-02-20T07:01:17.467Z,97755.52
2018-02-20T07:03:46.743Z,97757.78
2018-02-20T07:06:17.229Z,97761.11
2018-02-20T07:08:46.009Z,97765.15
2018-02-20T07:11:15.400Z,97761.38
2018-02-20T07:13:43.954Z,97764.91
2018-02-20T07:16:12.443Z,97755.45
2018-02-20T07:18:40.919Z,97766.55
2018-02-20T07:21:09.239Z,97760.24
2018-02-20T07:23:37.612Z,97756.77
2018-02-20T07:26:05.978Z,97748.88
2018-02-20T07:28:35.024Z,97752.59
2018-02-20T07:31:03.377Z,97753.70
2018-02-20T07:33:32.886Z,97748.59
2018-02-20T07:36:01.955Z,97749.00
2018-02-20T07:38:30.305Z,97750.44
2018-02-20T07:40:58.739Z,97751.00
2018-02-20T07:43:27.041Z,97752.48
2018-02-20T07:45:55.325Z,97757.12
2018-02-20T07:48:23.595Z,97752.84
2018-02-20T07:50:51.952Z,97750.59
2018-02-20T07:53:20.319Z,97749.77
2018-02-20T07:55:48.674Z,97750.59
2018-02-20T07:58:17.131Z,97751.45
2018-02-20T08:00:45.465Z,97754.22
2018-02-20T08:03:14.184Z,97758.45
2018-02-20T08:05:42.915Z,97757.89
2018-02-20T08:08:11.622Z,97763.73
2018-02-20T08:10:39.946Z,97755.06
2018-02-20T08:13:09.020Z,97764.77
2018-02-20T08:15:37.755Z,97765.90
2018-02-20T08:18:06.542Z,97765.39
2018-02-20T08:20:34.851Z,97768.98
2018-02-20T08:23:03.125Z,97768.55
2018-02-20T08:25:31.952Z,97763.61
2018-02-20T08:28:00.802Z,97766.45
2018-02-20T08:30:29.231Z,97759.66
2018-02-20T08:32:58.908Z,97764.66
2018-02-20T08:35:27.865Z,97763.44
2018-02-20T08:37:56.517Z,97762.25
2018-02-20T08:40:25.379Z,97758.55
2018-02-20T08:42:54.228Z,97757.55
2018-02-20T08:45:24.062Z,97761.09
2018-02-20T08:47:52.621Z,97765.13
2018-02-20T08:50:21.216Z,97761.83
2018-02-20T08:52:50.102Z,97759.76
2018-02-20T08:55:18.894Z,97758.63
2018-02-20T08:57:47.832Z,97760.34
2018-02-20T09:00:17.017Z,97760.72
2018-02-20T09:02:46.418Z,97762.09
2018-02-20T09:05:16.199Z,97762.29
2018-02-20T09:07:44.743Z,97763.14
2018-02-20T09:10:13.623Z,97758.35
2018-02-20T09:12:42.777Z,97760.77
2018-02-20T09:15:12.075Z,97750.70
2018-02-20T09:17:41.226Z,97744.34
2018-02-20T09:20:10.962Z,97745.62
2018-02-20T09:22:39.613Z,97750.38
2018-02-20T09:25:08.241Z,97743.91
2018-02-20T09:27:37.798Z,97750.47
2018-02-20T09:30:06.445Z,97746.54
2018-02-20T09:32:35.939Z,97751.02
2018-02-20T09:35:04.355Z,97742.56
2018-02-20T09:37:32.922Z,97740.56
2018-02-20T09:40:01.745Z,97738.23
2018-02-20T09:42:30.361Z,97746.77
2018-02-20T09:44:58.808Z,97740.16
2018-02-20T09:47:27.159Z,97741.89
2018-02-20T09:49:55.859Z,97743.28
2018-02-20T09:52:24.607Z,97731.55
2018-02-20T09:54:53.633Z,97738.20
2018-02-20T09:57:22.153Z,97732.86
2018-02-20T09:59:51.321Z,97736.52
2018-02-20T10:02:19.943Z,97737.96
2018-02-20T10:04:48.838Z,97738.72
2018-02-20T10:07:17.351Z,97747.52
2018-02-20T10:09:46.523Z,97739.33
2018-02-20T10:12:15.417Z,97736.80
2018-02-20T10:14:44.465Z,97735.78
2018-02-20T10:17:13.088Z,97738.06
2018-02-20T10:19:41.572Z,97739.63
2018-02-20T10:22:11.776Z,97738.86
2018-02-20T10:24:41.299Z,97742.75
2018-02-20T10:27:10.071Z,97738.86
2018-02-20T10:29:38.679Z,97737.61
2018-02-20T10:32:07.273Z,97735.70
2018-02-20T10:34:36.084Z,97737.79
2018-02-20T10:37:05.048Z,97744.06
2018-02-20T10:39:33.807Z,97739.04
2018-02-20T10:42:02.286Z,97735.58
2018-02-20T10:44:31.390Z,97732.46
2018-02-20T10:47:00.239Z,97731.13
2018-02-20T10:49:28.713Z,97728.31
2018-02-20T10:51:58.170Z,97724.86
2018-02-20T10:54:26.823Z,97726.62
2018-02-20T10:56:55.615Z,97727.41
2018-02-20T10:59:23.860Z,97730.77
2018-02-20T11:01:53.161Z,97725.52
2018-02-20T11:04:21.976Z,97731.52
2018-02-20T11:06:50.961Z,97725.54
2018-02-20T11:09:21.043Z,97726.39
2018-02-20T11:11:49.473Z,97733.91
2018-02-20T11:14:18.927Z,97723.28
2018-02-20T11:16:47.603Z,97725.45
2018-02-20T11:19:16.448Z,97725.69
2018-02-20T11:21:45.815Z,97727.91
2018-02-20T11:24:14.653Z,97736.55
2018-02-20T11:26:43.426Z,97732.25
2018-02-20T11:29:12.118Z,97734.55
2018-02-20T11:31:41.197Z,97736.75
2018-02-20T11:34:10.782Z,97731.73
2018-02-20T11:36:41.343Z,97732.50
2018-02-20T11:39:09.752Z,97726.94
2018-02-20T11:41:39.471Z,97733.52
2018-02-20T11:44:08.215Z,97729.09
2018-02-20T11:46:37.689Z,97734.70
2018-02-20T11:49:06.521Z,97739.27
2018-02-20T11:51:35.506Z,97731.78
2018-02-20T11:54:04.962Z,97726.70
2018-02-20T11:56:33.515Z,97733.68
2018-02-20T11:59:02.090Z,97726.19
2018-02-20T12:01:31.256Z,97732.74
2018-02-20T12:04:01.541Z,97734.22
2018-02-20T12:06:29.869Z,97732.66
2018-02-20T12:08:59.090Z,97730.22
2018-02-20T12:11:27.976Z,97733.83
2018-02-20T12:13:57.282Z,97730.29
2018-02-20T12:16:25.919Z,97727.34
2018-02-20T12:18:55.106Z,97726.12
2018-02-20T12:21:23.638Z,97729.55
2018-02-20T12:23:52.445Z,97724.72
2018-02-20T12:26:22.873Z,97729.72
2018-02-20T12:28:51.505Z,97737.06
2018-02-20T12:31:20.587Z,97735.72
2018-02-20T12:33:49.394Z,97730.90
2018-02-20T12:36:17.966Z,97744.87
2018-02-20T12:38:46.715Z,97740.00
2018-02-20T12:41:15.474Z,97745.05
2018-02-20T12:43:44.528Z,97745.55
2018-02-20T12:46:13.176Z,97742.20
2018-02-20T12:48:41.910Z,97748.48
2018-02-20T12:51:10.895Z,97743.75
2018-02-20T12:53:39.538Z,97741.16
2018-02-20T12:56:08.627Z,97746.16
2018-02-20T12:58:37.313Z,97744.03
2018-02-20T13:01:05.992Z,97738.72
2018-02-20T13:03:35.487Z,97743.08
2018-02-20T13:06:04.256Z,97744.34
2018-02-20T13:08:33.714Z,97746.26
2018-02-20T13:11:02.371Z,97742.36
2018-02-20T13:13:31.006Z,97746.81
2018-02-20T13:15:59.671Z,97742.47
2018-02-20T13:18:29.077Z,97744.69
2018-02-20T13:20:58.657Z,97728.80
2018-02-20T13:23:27.306Z,97737.09
2018-02-20T13:25:57.065Z,97734.55
2018-02-20T13:28:25.659Z,97736.56
2018-02-20T13:30:54.614Z,97734.40
2018-02-20T13:33:23.069Z,97735.39
2018-02-20T13:35:51.955Z,97734.64
2018-02-20T13:38:20.434Z,97733.95
2018-02-20T13:40:49.752Z,97733.55
2018-02-20T13:43:19.633Z,97727.69
2018-02-20T13:45:48.433Z,97724.44
2018-02-20T13:48:18.968Z,97728.47
2018-02-20T13:50:47.655Z,97728.97
2018-02-20T13:53:16.864Z,97730.39
2018-02-20T13:55:45.904Z,97732.75
2018-02-20T13:58:14.368Z,97728.98
2018-02-20T14:00:43.268Z,97730.80
2018-02-20T14:03:12.666Z,97733.16
2018-02-20T14:05:41.634Z,97733.69
2018-02-20T14:08:11.070Z,97727.11
2018-02-20T14:10:39.804Z,97727.61
2018-02-20T14:13:08.603Z,97729.10
2018-02-20T14:15:37.289Z,97726.50
2018-02-20T14:18:06.680Z,97726.02
2018-02-20T14:20:36.152Z,97727.85
2018-02-20T14:23:04.847Z,97729.64
2018-02-20T14:25:33.532Z,97717.59
2018-02-20T14:28:02.286Z,97722.48
2018-02-20T14:30:31.826Z,97721.29
2018-02-20T14:33:00.795Z,97719.05
2018-02-20T14:35:30.048Z,97724.30
2018-02-20T14:37:59.165Z,97723.05
2018-02-20T14:40:27.979Z,97720.98
2018-02-20T14:42:57.231Z,97720.35
2018-02-20T14:45:25.513Z,97721.81
2018-02-20T14:47:53.952Z,97722.49
2018-02-20T14:50:22.309Z,97720.21
2018-02-20T14:52:50.842Z,97727.92
2018-02-20T14:55:19.248Z,97728.80
2018-02-20T14:57:47.748Z,97718.28
2018-02-20T15:00:16.152Z,97723.92
2018-02-20T15:02:44.534Z,97723.11
2018-02-20T15:05:13.195Z,97733.81
2018-02-20T15:07:42.647Z,97735.45
2018-02-20T15:10:11.359Z,97720.87
2018-02-20T15:12:39.924Z,97732.52
2018-02-20T15:15:08.227Z,97728.75
2018-02-20T15:17:37.150Z,97731.55
2018-02-20T15:20:05.787Z,97734.45
2018-02-20T15:22:35.105Z,97740.95
2018-02-20T15:25:04.199Z,97730.63
2018-02-20T15:27:33.208Z,97733.03
2018-02-20T15:30:02.908Z,97740.75
2018-02-20T15:32:31.286Z,97743.88
2018-02-20T15:34:59.625Z,97747.53
2018-02-20T15:37:28.726Z,97748.93
2018-02-20T15:39:58.213Z,97756.45
2018-02-20T15:42:26.521Z,97743.92
2018-02-20T15:44:54.805Z,97750.56
2018-02-20T15:47:24.078Z,97757.91
2018-02-20T15:49:53.218Z,97743.75
2018-02-20T15:52:21.512Z,97751.41
2018-02-20T15:54:49.858Z,97760.87
2018-02-20T15:57:18.399Z,97756.77
2018-02-20T15:59:46.772Z,97764.31
2018-02-20T16:02:15.316Z,97765.43
2018-02-20T16:04:44.426Z,97768.75
2018-02-20T16:07:13.702Z,97769.04
2018-02-20T16:09:43.979Z,97765.69
2018-02-20T16:12:12.724Z,97769.91
2018-02-20T16:14:42.898Z,97768.81
2018-02-20T16:17:12.178Z,97776.95
2018-02-20T16:19:40.708Z,97780.55
2018-02-20T16:22:09.586Z,97774.14
2018-02-20T16:24:38.763Z,97772.58
2018-02-20T16:27:07.313Z,97777.95
2018-02-20T16:29:35.885Z,97781.13
2018-02-20T16:32:04.731Z,97782.61
2018-02-20T16:34:34.091Z,97781.45
2018-02-20T16:37:02.528Z,97786.49
2018-02-20T16:39:32.131Z,97778.00
2018-02-20T16:42:00.529Z,97787.65
2018-02-20T16:44:28.849Z,97789.67
2018-02-20T16:46:57.904Z,97794.39
2018-02-20T16:49:26.341Z,97791.04
2018-02-20T16:51:55.457Z,97785.65
2018-02-20T16:54:23.805Z,97786.05
2018-02-20T16:56:52.366Z,97793.23
2018-02-20T16:59:20.758Z,97786.88
2018-02-20T17:01:49.237Z,97785.52
2018-02-20T17:04:17.756Z,97798.66
2018-02-20T17:06:46.446Z,97791.19
2018-02-20T17:09:14.728Z,97787.23
2018-02-20T17:11:44.044Z,97797.45
2018-02-20T17:14:12.599Z,97797.36
2018-02-20T17:16:41.384Z,97814.83
2018-02-20T17:19:11.393Z,97802.93
2018-02-20T17:21:40.086Z,97796.67
2018-02-20T17:24:08.537Z,97800.59
2018-02-20T17:26:37.849Z,97795.85
2018-02-20T17:29:07.077Z,97803.83
2018-02-20T17:31:35.411Z,97804.28
2018-02-20T17:34:03.716Z,97801.21
2018-02-20T17:36:32.154Z,97808.13
2018-02-20T17:39:00.999Z,97803.83
2018-02-20T17:41:29.851Z,97804.16
2018-02-20T17:43:58.180Z,97811.72
2018-02-20T17:46:26.473Z,97811.59
2018-02-20T17:48:55.147Z,97814.40
2018-02-20T17:51:24.672Z,97816.15
2018-02-20T17:53:53.051Z,97810.76
2018-02-20T17:56:21.708Z,97818.23
2018-02-20T17:58:50.045Z,97821.56
2018-02-20T18:01:18.508Z,97823.48
2018-02-20T18:03:46.950Z,97821.20
2018-02-20T18:06:15.643Z,97828.50
2018-02-20T18:08:44.426Z,97837.30
2018-02-20T18:11:13.035Z,97830.22
2018-02-20T18:13:41.647Z,97836.19
2018-02-20T18:16:10.137Z,97833.98
2018-02-20T18:18:38.657Z,97847.13
2018-02-20T18:21:06.961Z,97848.00
2018-02-20T18:23:35.235Z,97849.25
2018-02-20T18:26:03.506Z,97852.08
2018-02-20T18:28:32.103Z,97855.95
2018-02-20T18:31:00.685Z,97850.13
2018-02-20T18:33:29.033Z,97857.78
2018-02-20T18:35:57.371Z,97858.48
2018-02-20T18:38:25.680Z,97863.73
2018-02-20T18:40:54.194Z,97865.67
2018-02-20T18:43:23.366Z,97871.33
2018-02-20T18:45:51.711Z,97869.67
2018-02-20T18:48:20.957Z,97882.86
2018-02-20T18:50:49.584Z,97881.25
2018-02-20T18:53:18.729Z,97875.13
2018-02-20T18:55:47.273Z,97885.45
2018-02-20T18:58:15.870Z,97880.33
2018-02-20T19:00:44.644Z,97888.74
2018-02-20T19:03:13.417Z,97883.92
2018-02-20T19:05:42.929Z,97889.75
2018-02-20T19:08:11.558Z,97883.56
2018-02-20T19:10:40.081Z,97891.34
2018-02-20T19:13:08.730Z,97884.41
2018-02-20T19:15:37.942Z,97888.57
2018-02-20T19:18:07.566Z,97878.03
2018-02-20T19:20:36.880Z,97881.61
2018-02-20T19:23:06.000Z,97883.51
2018-02-20T19:25:34.510Z,97879.48
2018-02-20T19:28:02.866Z,97888.39
2018-02-20T19:30:31.172Z,97892.45
2018-02-20T19:32:59.640Z,97890.81
2018-02-20T19:35:28.165Z,97890.00
2018-02-20T19:37:56.475Z,97892.27
2018-02-20T19:40:24.912Z,97897.39
2018-02-20T19:42:54.214Z,97898.59
2018-02-20T19:45:22.763Z,97902.77
2018-02-20T19:47:51.233Z,97897.08
2018-02-20T19:50:20.415Z,97905.19
2018-02-20T19:52:49.636Z,97903.66
2018-02-20T19:55:18.709Z,97905.27
2018-02-20T19:57:47.017Z,97903.48
2018-02-20T20:00:15.715Z,97900.73
2018-02-20T20:02:44.128Z,97900.70
2018-02-20T20:05:13.372Z,97905.86
2018-02-20T20:07:41.852Z,97905.96
2018-02-20T20:10:10.226Z,97900.98
2018-02-20T20:12:38.605Z,97906.91
2018-02-20T20:15:06.892Z,97907.91
2018-02-20T20:17:35.286Z,97915.03
2018-02-20T20:20:03.656Z,97904.37
2018-02-20T20:22:32.102Z,97913.21
2018-02-20T20:25:01.333Z,97910.01
2018-02-20T20:27:30.416Z,97916.41
2018-02-20T20:29:59.579Z,97923.20
2018-02-20T20:32:28.233Z,97921.88
2018-02-20T20:34:57.564Z,97926.43
2018-02-20T20:37:26.164Z,97925.98
2018-02-20T20:39:54.703Z,97924.48
2018-02-20T20:42:23.046Z,97925.95
2018-02-20T20:44:51.438Z,97924.48
2018-02-20T20:47:19.785Z,97927.64
2018-02-20T20:49:49.755Z,97934.31
2018-02-20T20:52:19.006Z,97936.59
2018-02-20T20:54:47.360Z,97937.52
2018-02-20T20:57:15.662Z,97937.27
2018-02-20T20:59:44.016Z,97939.66
2018-02-20T21:02:13.385Z,97939.89
2018-02-20T21:04:41.768Z,97945.80
2018-02-20T21:07:11.002Z,97949.94
2018-02-20T21:09:39.593Z,97941.22
2018-02-20T21:12:07.987Z,97951.59
2018-02-20T21:14:37.158Z,97944.01
2018-02-20T21:17:05.743Z,97944.69
2018-02-20T21:19:34.937Z,97947.05
2018-02-20T21:22:04.011Z,97945.88
2018-02-20T21:24:32.347Z,97941.55
2018-02-20T21:27:01.563Z,97948.22
2018-02-20T21:29:31.100Z,97942.47
2018-02-20T21:31:59.764Z,97947.88
2018-02-20T21:34:28.816Z,97943.41
2018-02-20T21:36:57.292Z,97944.70
2018-02-20T21:39:25.876Z,97937.08
2018-02-20T21:41:54.947Z,97945.09
2018-02-20T21:44:23.276Z,97934.22
2018-02-20T21:46:51.672Z,97929.91
2018-02-20T21:49:21.209Z,97935.08
2018-02-20T21:51:49.568Z,97941.13
2018-02-20T21:54:17.921Z,97937.22
2018-02-20T21:56:46.296Z,97931.52
2018-02-20T21:59:14.683Z,97928.09
2018-02-20T22:01:43.057Z,97937.69
2018-02-20T22:04:11.372Z,97934.95
2018-02-20T22:06:39.708Z,97936.80
2018-02-20T22:09:09.153Z,97939.81
2018-02-20T22:11:38.255Z,97946.41
2018-02-20T22:14:06.544Z,97936.02
2018-02-20T22:16:34.958Z,97941.50
2018-02-20T22:19:03.252Z,97934.64
2018-02-20T22:21:31.585Z,97934.87
2018-02-20T22:23:59.983Z,97934.55
2018-02-20T22:26:29.241Z,97934.18
2018-02-20T22:28:57.754Z,97938.34
2018-02-20T22:31:26.116Z,97944.06
2018-02-20T22:33:54.427Z,97947.88
2018-02-20T22:36:24.056Z,97942.45
2018-02-20T22:38:52.701Z,97950.49
2018-02-20T22:41:21.910Z,97953.89
2018-02-20T22:43:51.014Z,97950.62
2018-02-20T22:46:21.035Z,97952.45
2018-02-20T22:48:49.416Z,97949.67
2018-02-20T22:51:17.967Z,97958.16
2018-02-20T22:53:46.319Z,97959.02
2018-02-20T22:56:15.487Z,97961.91
2018-02-20T22:58:44.342Z,97966.66
2018-02-20T23:01:13.555Z,97969.72
2018-02-20T23:03:42.083Z,97971.62
2018-02-20T23:06:11.331Z,97966.86
2018-02-20T23:08:39.679Z,97971.91
2018-02-20T23:11:07.986Z,97977.98
2018-02-20T23:13:36.331Z,97982.25
2018-02-20T23:16:05.364Z,97980.71
2018-02-20T23:18:33.624Z,97976.25
2018-02-20T23:21:02.668Z,97982.62
2018-02-20T23:23:30.960Z,97977.98
2018-02-20T23:25:59.243Z,97982.30
2018-02-20T23:28:27.518Z,97988.95
2018-02-20T23:30:55.798Z,97987.53
2018-02-20T23:33:24.811Z,97989.59
2018-02-20T23:35:53.096Z,97992.34
2018-02-20T23:38:21.362Z,97992.02
2018-02-20T23:40:49.656Z,97986.30
2018-02-20T23:43:17.921Z,97991.58
2018-02-20T23:45:46.229Z,97991.84
2018-02-20T23:48:15.305Z,97996.98
2018-02-20T23:50:43.769Z,97995.05
2018-02-20T23:53:12.095Z,97995.53
2018-02-20T23:55:40.428Z,97998.16
2018-02-20T23:58:09.460Z,97996.67
